Time;durP1;ratioP1;P1;durP2;ratioP2;P2;SDS_P1;SDS_P2;PMS_P1;PMS_P2;Temp;Humidity;BMP_temperature;BMP_pressure;BME280_temperature;BME280_humidity;BME280_pressure;Samples;Min_cycle;Max_cycle;Signal;HPM_P1;HPM_P2
2022/12/16 00:01:17;;;;;;;34.97;10.77;;;;;;;6.85;100.00;97309.16;5092270;28;20035;-48
2022/12/16 00:03:47;;;;;;;11.02;8.45;;;;;;;6.43;100.00;97312.16;5092264;28;20096;-48
2022/12/16 00:06:13;;;;;;;257.83;26.20;;;;;;;6.16;100.00;97317.50;5090712;28;20024;-48
2022/12/16 00:08:39;;;;;;;15.05;10.00;;;;;;;6.15;100.00;97312.47;5092140;28;20024;-48
2022/12/16 00:11:06;;;;;;;16.52;10.88;;;;;;;6.34;100.00;97318.63;5090755;28;20103;-47
2022/12/16 00:13:33;;;;;;;18.70;12.20;;;;;;;6.50;100.00;97319.94;5091990;28;20028;-48
2022/12/16 00:16:02;;;;;;;13.88;10.48;;;;;;;6.55;100.00;97318.31;5090707;28;20374;-47
2022/12/16 00:18:28;;;;;;;19.90;10.18;;;;;;;6.66;100.00;97324.69;5091920;28;20073;-48
2022/12/16 00:20:54;;;;;;;14.55;9.43;;;;;;;6.70;100.00;97323.28;5091969;28;20072;-47
2022/12/16 00:23:21;;;;;;;18.88;12.25;;;;;;;6.59;100.00;97322.09;5090331;28;20047;-48
2022/12/16 00:25:47;;;;;;;20.92;14.25;;;;;;;6.52;100.00;97320.53;5091823;28;20099;-48
2022/12/16 00:28:14;;;;;;;143.75;20.80;;;;;;;6.41;100.00;97324.59;5091874;28;20084;-48
2022/12/16 00:30:43;;;;;;;16.08;12.15;;;;;;;6.34;100.00;97326.44;5091844;28;20043;-48
2022/12/16 00:33:09;;;;;;;16.30;10.95;;;;;;;6.32;100.00;97326.66;5091800;28;20027;-48
2022/12/16 00:35:35;;;;;;;17.27;10.60;;;;;;;6.25;100.00;97330.28;5073635;28;20021;-47
2022/12/16 00:38:01;;;;;;;19.90;12.70;;;;;;;5.97;100.00;97333.97;5090494;28;20200;-47
2022/12/16 00:40:26;;;;;;;21.02;13.52;;;;;;;6.04;100.00;97333.94;5091805;28;20059;-47
2022/12/16 00:42:52;;;;;;;17.15;11.40;;;;;;;6.14;100.00;97337.72;5090430;28;20024;-47
2022/12/16 00:45:18;;;;;;;21.55;11.27;;;;;;;6.37;100.00;97344.25;5090345;28;20097;-47
2022/12/16 00:47:43;;;;;;;37.45;28.52;;;;;;;6.55;100.00;97339.16;5090710;28;20089;-47
2022/12/16 00:50:10;;;;;;;19.30;12.82;;;;;;;6.68;100.00;97340.09;5091720;28;20044;-47
2022/12/16 00:52:36;;;;;;;13.93;10.48;;;;;;;6.69;100.00;97346.94;5091939;28;20028;-47
2022/12/16 00:55:02;;;;;;;57.42;14.32;;;;;;;6.34;100.00;97347.28;5091652;28;20085;-47
2022/12/16 00:57:28;;;;;;;14.48;11.50;;;;;;;5.98;100.00;97349.38;5090347;28;20051;-47
2022/12/16 00:59:53;;;;;;;15.77;10.50;;;;;;;5.83;100.00;97350.59;5073796;28;20498;-46
2022/12/16 01:02:19;;;;;;;25.10;18.17;;;;;;;5.79;100.00;97356.22;5090232;28;20032;-47
2022/12/16 01:04:44;;;;;;;18.02;13.10;;;;;;;5.80;100.00;97362.22;5091637;28;20026;-47
2022/12/16 01:07:10;;;;;;;22.35;15.05;;;;;;;5.82;100.00;97364.63;5091524;28;20024;-47
2022/12/16 01:09:36;;;;;;;19.42;12.95;;;;;;;6.14;100.00;97363.78;5092032;28;20487;-47
2022/12/16 01:12:01;;;;;;;16.23;11.82;;;;;;;6.44;100.00;97370.28;5094203;28;20036;-46
2022/12/16 01:14:27;;;;;;;13.68;10.52;;;;;;;6.55;100.00;97375.66;5095512;28;20020;-46
2022/12/16 01:16:52;;;;;;;14.13;10.93;;;;;;;6.47;100.00;97373.28;5094158;28;20517;-46
2022/12/16 01:19:18;;;;;;;15.52;10.13;;;;;;;6.27;100.00;97382.97;5094030;28;20027;-46
2022/12/16 01:21:44;;;;;;;16.38;11.48;;;;;;;6.31;100.00;97384.16;5095238;28;20166;-46
2022/12/16 01:24:10;;;;;;;21.67;14.90;;;;;;;6.46;100.00;97391.72;5093757;28;20131;-46
2022/12/16 01:26:36;;;;;;;46.10;32.78;;;;;;;6.61;100.00;97394.91;5095094;28;20016;-46
2022/12/16 01:29:02;;;;;;;61.03;43.72;;;;;;;6.78;100.00;97403.84;5095138;28;20454;-46
2022/12/16 01:31:28;;;;;;;62.25;43.05;;;;;;;6.83;100.00;97407.66;5095069;28;20020;-46
2022/12/16 01:33:53;;;;;;;67.78;45.22;;;;;;;6.80;100.00;97416.66;5093766;28;20047;-46
2022/12/16 01:36:19;;;;;;;19.52;12.98;;;;;;;6.70;100.00;97424.13;5094997;28;20056;-46
2022/12/16 01:38:45;;;;;;;13.98;9.88;;;;;;;6.67;100.00;97424.56;5094966;28;20397;-46
2022/12/16 01:41:12;;;;;;;16.30;9.63;;;;;;;6.69;100.00;97427.75;5093565;28;20512;-46
2022/12/16 01:43:40;;;;;;;11.70;8.85;;;;;;;6.86;100.00;97430.69;5095128;28;20024;-46
2022/12/16 01:46:19;;;;;;;14.25;7.88;;;;;;;6.93;100.00;97432.25;5094772;28;20056;-46
2022/12/16 01:48:51;;;;;;;13.68;7.45;;;;;;;7.05;100.00;97440.25;5093507;28;20040;-46
2022/12/16 01:51:34;;;;;;;13.23;8.15;;;;;;;7.02;100.00;97442.47;5093398;28;20031;-46
2022/12/16 01:54:08;;;;;;;14.63;8.65;;;;;;;6.98;100.00;97449.88;5093441;28;20410;-46
2022/12/16 01:56:39;;;;;;;16.02;9.02;;;;;;;7.06;100.00;97452.25;5094626;28;20105;-46
2022/12/16 01:59:05;;;;;;;12.43;8.77;;;;;;;7.11;100.00;97446.44;5093341;28;20097;-46
2022/12/16 02:01:31;;;;;;;13.00;7.78;;;;;;;7.18;100.00;97455.00;5093190;28;20027;-46
2022/12/16 02:04:02;;;;;;;11.60;8.40;;;;;;;7.21;100.00;97454.63;5094520;28;20024;-47
2022/12/16 02:06:29;;;;;;;16.52;9.60;;;;;;;6.90;100.00;97456.16;5093086;28;20508;-46
2022/12/16 02:08:59;;;;;;;14.32;9.32;;;;;;;6.75;100.00;97459.00;5094433;28;20028;-46
2022/12/16 02:11:25;;;;;;;46.78;41.55;;;;;;;6.63;100.00;97462.47;5094249;28;20077;-46
2022/12/16 02:14:25;;;;;;;29.85;26.63;;;;;;;6.68;100.00;97463.47;5094352;28;20024;-46
2022/12/16 02:16:58;;;;;;;16.30;13.23;;;;;;;6.51;100.00;97459.69;5094260;28;20031;-46
2022/12/16 02:19:59;;;;;;;14.98;11.23;;;;;;;6.22;100.00;97460.94;5092909;28;20039;-46
2022/12/16 02:22:30;;;;;;;16.17;9.50;;;;;;;6.47;100.00;97468.94;5092080;28;20028;-47
2022/12/16 02:25:28;;;;;;;14.00;8.95;;;;;;;6.59;100.00;97469.88;5094135;28;20039;-46
2022/12/16 02:28:31;;;;;;;12.48;9.25;;;;;;;6.65;100.00;97470.88;5094098;28;20031;-46
2022/12/16 02:31:23;;;;;;;12.02;7.88;;;;;;;6.68;100.00;97471.28;5092670;28;20035;-47
2022/12/16 02:34:00;;;;;;;10.35;8.52;;;;;;;6.79;100.00;97480.25;5093953;28;20036;-47
2022/12/16 02:36:51;;;;;;;12.95;9.05;;;;;;;6.74;100.00;97482.69;5093911;28;20122;-47
2022/12/16 02:39:21;;;;;;;210.40;177.00;;;;;;;6.69;100.00;97479.91;5093828;28;20034;-47
2022/12/16 02:41:58;;;;;;;128.20;113.75;;;;;;;6.76;100.00;97491.09;5093724;28;20028;-48
2022/12/16 02:44:43;;;;;;;188.93;169.48;;;;;;;6.69;100.00;97490.31;5093764;28;20035;-48
2022/12/16 02:47:09;;;;;;;60.85;51.15;;;;;;;6.67;100.00;97497.56;5093560;28;20097;-47
2022/12/16 02:49:45;;;;;;;150.90;134.13;;;;;;;6.68;100.00;97499.13;5092199;28;20489;-48
2022/12/16 02:52:11;;;;;;;159.00;142.60;;;;;;;6.70;100.00;97505.78;5075448;28;20028;-48
2022/12/16 02:54:37;;;;;;;146.10;130.77;;;;;;;6.83;100.00;97507.53;5092175;28;20020;-48
2022/12/16 02:57:49;;;;;;;31.08;21.42;;;;;;;6.89;100.00;97508.53;5092134;28;20047;-48
2022/12/16 03:00:21;;;;;;;25.75;18.42;;;;;;;6.89;100.00;97506.72;5083728;28;20040;-48
2022/12/16 03:03:08;;;;;;;23.48;18.63;;;;;;;7.04;100.00;97514.28;5092008;28;20024;-48
2022/12/16 03:05:47;;;;;;;24.73;18.27;;;;;;;7.12;100.00;97518.47;5093185;28;20103;-48
2022/12/16 03:08:18;;;;;;;33.97;20.40;;;;;;;7.22;100.00;97523.25;5093523;28;20059;-48
2022/12/16 03:10:47;;;;;;;31.05;19.73;;;;;;;7.26;100.00;97522.63;5091893;28;20081;-48
2022/12/16 03:13:16;;;;;;;31.02;18.48;;;;;;;7.20;100.00;97529.50;5091813;28;20012;-49
2022/12/16 03:15:43;;;;;;;32.50;18.63;;;;;;;7.13;100.00;97525.28;5091753;28;20032;-48
2022/12/16 03:18:12;;;;;;;28.13;20.20;;;;;;;6.99;100.00;97529.75;5093013;28;20498;-48
2022/12/16 03:20:45;;;;;;;30.52;19.83;;;;;;;6.80;100.00;97528.78;5093429;28;20024;-48
2022/12/16 03:23:16;;;;;;;32.67;21.60;;;;;;;6.76;100.00;97532.81;5092763;28;20052;-48
2022/12/16 03:25:46;;;;;;;32.83;19.58;;;;;;;6.64;100.00;97529.22;5092855;28;20032;-48
2022/12/16 03:28:37;;;;;;;36.85;20.35;;;;;;;6.59;100.00;97535.84;5093122;28;20044;-48
2022/12/16 03:31:34;;;;;;;29.65;20.17;;;;;;;6.57;100.00;97524.84;5091562;28;20129;-48
2022/12/16 03:34:20;;;;;;;31.02;20.35;;;;;;;6.55;100.00;97526.03;5092100;28;20145;-48
2022/12/16 03:36:51;;;;;;;32.07;21.43;;;;;;;6.65;100.00;97530.84;5091418;28;20035;-48
2022/12/16 03:39:20;;;;;;;35.38;18.90;;;;;;;6.78;100.00;97525.59;5091417;28;20094;-48
2022/12/16 03:41:48;;;;;;;36.13;21.52;;;;;;;6.92;100.00;97526.34;5091255;28;20024;-48
2022/12/16 03:44:14;;;;;;;33.55;19.70;;;;;;;7.00;100.00;97528.72;5092503;28;20022;-48
2022/12/16 03:46:40;;;;;;;34.85;21.77;;;;;;;6.95;100.00;97533.78;5091073;28;20032;-48
2022/12/16 03:49:05;;;;;;;33.85;19.98;;;;;;;6.90;100.00;97536.19;5092716;28;20069;-48
2022/12/16 03:51:31;;;;;;;31.95;22.58;;;;;;;6.88;100.00;97536.41;5091104;28;20046;-48
2022/12/16 03:53:56;;;;;;;34.10;18.95;;;;;;;6.87;100.00;97528.78;5091074;28;20028;-48
2022/12/16 03:56:22;;;;;;;32.70;20.65;;;;;;;6.83;100.00;97546.66;5074084;28;20028;-48
2022/12/16 03:58:47;;;;;;;33.75;21.45;;;;;;;6.79;100.00;97550.66;5090981;28;20020;-48
2022/12/16 04:01:14;;;;;;;31.27;20.58;;;;;;;6.86;100.00;97551.47;5107982;28;20107;-48
2022/12/16 04:03:39;;;;;;;31.98;20.27;;;;;;;6.93;100.00;97548.84;5090935;28;20077;-48
2022/12/16 04:06:05;;;;;;;32.72;22.55;;;;;;;6.88;100.00;97557.28;5092341;28;20028;-48
2022/12/16 04:08:31;;;;;;;30.98;20.90;;;;;;;6.94;100.00;97555.63;5092464;28;20032;-48
2022/12/16 04:25:09;;;;;;;29.05;20.33;;;;;;;6.72;100.00;97575.94;5091939;28;20105;-48
2022/12/16 04:27:34;;;;;;;29.17;20.58;;;;;;;6.65;100.00;97581.16;5090674;28;20040;-48
2022/12/16 04:30:18;;;;;;;30.30;19.08;;;;;;;6.72;100.00;97586.38;5091827;28;20020;-48
